Thursday, February 11, 2016
02:36 UTC
  |  Log In   |  Register Free
Airport Search:

Smithville Municipal Airport
(0A3)

Smithville Municipal Airport Diagram
No Airport Diagram Available

FAA data valid effective Feb 4 2016 - Mar 31 2016 (unless otherwise noted).

 
 
 
 
 
 
 
 
 
 
 
 
 
 
Current Aviation Weather for 0A3

Weather Summary


Current weather conditions are not available for 0A3 - The nearest NOAA weather station is at SRB, (14.2 nm NE from 0A3)

The most recent METAR observation for 0A3 was updated at: 13:15 UTC
METAR for 0A3 is not available. Closest METAR is for KSRB 14.2 nm SW
KSRB  (14.2 nm SW)   (most recent observation was updated at 11:02 UTC)
110215Z AUTO 25005KT 6SM BKN019 OVC024 M04/M07 A3017 RMK

KRNC  (17.3 nm NE)   (most recent observation was updated at 11:02 UTC)
110215Z AUTO 27006KT 9SM FEW015 BKN043 M05/M06 A3018 RMK

TAF for 0A3 is not available.
GlobalAir.com is loading additional information.
 Current Weather at MQY
25.0 F° (-3.8 C°)

West winds at 5.8 mph
Pressure:
30.22 in
Humidity:
88%
Wind:
West at 5.8 mph
Dew Point:
22.1 F° (-5.5 C°)
Visibility:
2.50 mi
0A3 NOAA Radar




Find All Airport Services Find A Hotel Find A Rental Car Find A Golf Course Find A Restaurant $100 Hamburger



Airport Weather Forecast for 0A3

Translated METAR for KSRB (0215 UTC)
METAR:
KSRB 110215Z AUTO 25005KT 6SM BKN019 OVC024 M04/M07 A3017 RMK
Conditions at:
KSRB (Upper Cumberland Rgnl, TN) observed 0215 UTC 10 February 2016
Temperature:
-4°C (24.8°F)
Dewpoint:
-7°C (19.4°F) [RH = 79.6]
Pressure:
30.17 inches Hg (1021.7 mb)
Winds:
from the WSW (250 degrees) at 5.8 mph (5 knots: 2.6 m/s)
Visibility:
6 mile(s)
Ceiling:
1,900 feet AGL
Clouds:
Broken Cloud Cover at 1,900 feet AGL
Overcast Skies at 2,400 feet AGL
Remarks:
site is un-manned

Translated TAF for TAF for 0A3 is not available. Refer to local area forecast.
FBO's on the Field
FBO Company Facility Photos Services Transportation Aviation Fuel Prices: Prices include tax
Catering Weather Repair Courtesy Rental Type 100LL JetA JetA+ MOGAS 8087
 
Smithville Municipal Airport

This FBO has not yet been rated
FS:Shell
Last Updated: Jan-25
Login to update fuel prices
SS:
Contact Smithville Municipal AirportMore FBO Information
 
Add another FBO Facility Photos Catering Weather Repair Courtesy Rental Type 100LL JetA JetA+ MOGAS 8087
Services Transportation Aviation Fuel Prices: Prices include tax


model-print
model-print
model-print
model-print